createdAt,value
2019-02-05T00:00:41.226Z,0
2019-02-05T00:01:39.821Z,0
2019-02-05T00:02:38.445Z,0
2019-02-05T00:03:37.069Z,0
2019-02-05T00:04:35.605Z,0
2019-02-05T00:05:34.154Z,0
2019-02-05T00:06:32.740Z,0
2019-02-05T00:07:31.307Z,0
2019-02-05T00:08:29.887Z,0
2019-02-05T00:09:28.639Z,0
2019-02-05T00:10:27.351Z,0
2019-02-05T00:11:25.933Z,0
2019-02-05T00:12:24.513Z,0
2019-02-05T00:13:23.154Z,0
2019-02-05T00:14:21.723Z,0
2019-02-05T00:15:20.296Z,0
2019-02-05T00:16:18.903Z,0
2019-02-05T00:17:17.464Z,0
2019-02-05T00:18:16.040Z,0
2019-02-05T00:19:14.743Z,0
2019-02-05T00:20:13.419Z,0
2019-02-05T00:21:11.974Z,0
2019-02-05T00:22:11.367Z,0
2019-02-05T00:23:09.902Z,0
2019-02-05T00:24:08.538Z,0
2019-02-05T00:25:07.186Z,0
2019-02-05T00:26:06.595Z,0
2019-02-05T00:27:04.503Z,0
2019-02-05T00:28:03.047Z,0
2019-02-05T00:29:01.613Z,0
2019-02-05T00:30:00.194Z,0
2019-02-05T00:30:58.760Z,0
2019-02-05T00:31:57.301Z,0
2019-02-05T00:32:55.864Z,0
2019-02-05T00:33:54.488Z,0
2019-02-05T00:34:53.054Z,0
2019-02-05T00:35:51.708Z,0
2019-02-05T00:36:50.313Z,0
2019-02-05T00:37:49.153Z,0
2019-02-05T00:38:47.689Z,0
2019-02-05T00:39:46.312Z,0
2019-02-05T00:40:44.983Z,0
2019-02-05T00:41:43.545Z,0
2019-02-05T00:42:42.117Z,0
2019-02-05T00:43:40.695Z,0
2019-02-05T00:44:39.317Z,0
2019-02-05T00:45:37.862Z,0
2019-02-05T00:46:36.534Z,0
2019-02-05T00:47:35.275Z,0
2019-02-05T00:48:33.833Z,0
2019-02-05T00:49:32.362Z,0
2019-02-05T00:50:30.934Z,0
2019-02-05T00:51:29.470Z,0
2019-02-05T00:52:28.066Z,0
2019-02-05T00:53:26.782Z,0
2019-02-05T00:54:25.404Z,0
2019-02-05T00:55:23.941Z,0
2019-02-05T00:56:22.562Z,0
2019-02-05T00:57:21.197Z,0
2019-02-05T00:58:19.739Z,0
2019-02-05T00:59:18.280Z,0
2019-02-05T01:00:16.994Z,0
2019-02-05T01:01:15.607Z,0
2019-02-05T01:02:14.182Z,0
2019-02-05T01:03:12.993Z,0
2019-02-05T01:04:11.538Z,0
2019-02-05T01:05:10.114Z,0
2019-02-05T01:06:08.869Z,0
2019-02-05T01:07:07.485Z,0
2019-02-05T01:08:05.987Z,0
2019-02-05T01:09:04.816Z,0
2019-02-05T01:10:03.401Z,0
2019-02-05T01:11:01.947Z,0
2019-02-05T01:12:00.561Z,0
2019-02-05T01:12:59.153Z,0
2019-02-05T01:13:57.729Z,0
2019-02-05T01:14:56.425Z,0
2019-02-05T01:15:55.196Z,0
2019-02-05T01:16:53.775Z,0
2019-02-05T01:17:52.313Z,0
2019-02-05T01:18:50.922Z,0
2019-02-05T01:19:49.454Z,0
2019-02-05T01:20:48.025Z,0
2019-02-05T01:21:46.698Z,0
2019-02-05T01:22:45.407Z,0
2019-02-05T01:23:43.970Z,0
2019-02-05T01:24:42.598Z,0
2019-02-05T01:25:41.349Z,0
2019-02-05T01:26:39.874Z,0
2019-02-05T01:27:38.442Z,0
2019-02-05T01:28:37.020Z,0
2019-02-05T01:29:35.573Z,0
2019-02-05T01:30:34.127Z,0
2019-02-05T01:31:32.643Z,0
2019-02-05T01:32:31.201Z,0
2019-02-05T01:33:29.764Z,0
2019-02-05T01:34:28.318Z,0
2019-02-05T01:35:26.982Z,0
2019-02-05T01:36:25.540Z,0
2019-02-05T01:37:24.089Z,0
2019-02-05T01:38:22.812Z,0
2019-02-05T01:39:21.394Z,0
2019-02-05T01:40:19.922Z,0
2019-02-05T01:41:18.519Z,0
2019-02-05T01:42:17.171Z,0
2019-02-05T01:43:15.720Z,0
2019-02-05T01:44:14.278Z,0
2019-02-05T01:45:12.897Z,0
2019-02-05T01:46:11.469Z,0
2019-02-05T01:47:10.028Z,0
2019-02-05T01:48:08.572Z,0
2019-02-05T01:49:07.155Z,0
2019-02-05T01:50:05.711Z,0
2019-02-05T01:51:04.270Z,0
2019-02-05T01:52:03.091Z,0
2019-02-05T01:53:01.623Z,0
2019-02-05T01:54:00.141Z,0
2019-02-05T01:54:58.929Z,0
2019-02-05T01:55:57.588Z,0
2019-02-05T01:56:56.022Z,0
2019-02-05T01:57:54.613Z,0
2019-02-05T01:58:53.161Z,0
2019-02-05T01:59:51.746Z,0
2019-02-05T02:00:50.391Z,0
2019-02-05T02:01:49.207Z,0
2019-02-05T02:02:47.790Z,0
2019-02-05T02:03:46.343Z,0
2019-02-05T02:04:44.958Z,0
2019-02-05T02:05:43.528Z,0
2019-02-05T02:06:42.085Z,0
2019-02-05T02:07:40.658Z,0
2019-02-05T02:08:39.227Z,0
2019-02-05T02:09:37.856Z,0
2019-02-05T02:10:36.462Z,0
2019-02-05T02:11:35.100Z,0
2019-02-05T02:12:33.714Z,0
2019-02-05T02:13:32.296Z,0
2019-02-05T02:14:30.989Z,0
2019-02-05T02:15:29.856Z,0
2019-02-05T02:16:28.420Z,0
2019-02-05T02:17:26.982Z,0
2019-02-05T02:18:25.556Z,0
2019-02-05T02:19:24.099Z,0
2019-02-05T02:20:22.829Z,0
2019-02-05T02:21:21.521Z,0
2019-02-05T02:22:19.951Z,0
2019-02-05T02:23:18.650Z,0
2019-02-05T02:24:17.420Z,0
2019-02-05T02:25:15.982Z,0
2019-02-05T02:26:14.650Z,0
2019-02-05T02:27:13.120Z,0
2019-02-05T02:28:11.654Z,0
2019-02-05T02:29:10.270Z,0
2019-02-05T02:30:08.884Z,0
2019-02-05T02:31:07.533Z,0
2019-02-05T02:32:06.082Z,0
2019-02-05T02:33:04.784Z,0
2019-02-05T02:34:03.424Z,0
2019-02-05T02:35:02.025Z,0
2019-02-05T02:36:00.596Z,0
2019-02-05T02:36:59.159Z,0
2019-02-05T02:37:57.763Z,0
2019-02-05T02:38:56.317Z,0
2019-02-05T02:39:54.867Z,0
2019-02-05T02:40:53.401Z,0
2019-02-05T02:41:52.018Z,0
2019-02-05T02:42:50.648Z,0
2019-02-05T02:43:49.258Z,0
2019-02-05T02:44:47.794Z,0
2019-02-05T02:45:46.486Z,0
2019-02-05T02:46:45.218Z,0
2019-02-05T02:47:43.779Z,0
2019-02-05T02:48:42.350Z,0
2019-02-05T02:49:40.907Z,0
2019-02-05T02:50:39.454Z,0
2019-02-05T02:51:37.993Z,0
2019-02-05T02:52:36.697Z,0
2019-02-05T02:53:35.291Z,0
2019-02-05T02:54:33.825Z,0
2019-02-05T02:55:32.399Z,0
2019-02-05T02:56:31.035Z,0
2019-02-05T02:57:29.585Z,0
2019-02-05T02:58:28.233Z,0
2019-02-05T02:59:26.913Z,0
2019-02-05T03:00:25.531Z,0
2019-02-05T03:01:24.050Z,0
2019-02-05T03:02:22.635Z,0
2019-02-05T03:03:21.196Z,0
2019-02-05T03:04:19.749Z,0
2019-02-05T03:05:18.475Z,0
2019-02-05T03:06:17.075Z,0
2019-02-05T03:07:15.608Z,0
2019-02-05T03:08:14.164Z,0
2019-02-05T03:09:12.866Z,0
2019-02-05T03:10:11.587Z,0
2019-02-05T03:11:10.144Z,0
2019-02-05T03:12:08.789Z,0
2019-02-05T03:13:07.339Z,0
2019-02-05T03:14:05.886Z,0
2019-02-05T03:15:04.477Z,0
2019-02-05T03:16:03.225Z,0
2019-02-05T03:17:01.814Z,0
2019-02-05T03:18:00.495Z,0
2019-02-05T03:18:59.295Z,0
2019-02-05T03:19:57.833Z,0
2019-02-05T03:20:56.375Z,0
2019-02-05T03:21:54.908Z,0
2019-02-05T03:22:53.458Z,0
2019-02-05T03:23:52.012Z,0
2019-02-05T03:24:50.566Z,0
2019-02-05T03:25:49.116Z,0
2019-02-05T03:26:47.655Z,0
2019-02-05T03:27:46.296Z,0
2019-02-05T03:28:44.928Z,0
2019-02-05T03:29:43.556Z,0
2019-02-05T03:30:42.105Z,0
2019-02-05T03:31:40.835Z,0
2019-02-05T03:32:39.442Z,0
2019-02-05T03:33:37.977Z,0
2019-02-05T03:34:36.635Z,0
2019-02-05T03:35:35.237Z,0
2019-02-05T03:36:33.777Z,0
2019-02-05T03:37:32.305Z,0
2019-02-05T03:38:30.895Z,0
2019-02-05T03:39:29.473Z,0
2019-02-05T03:40:28.024Z,0
2019-02-05T03:41:26.678Z,0
2019-02-05T03:42:25.220Z,0
2019-02-05T03:43:23.790Z,0
2019-02-05T03:44:22.377Z,0
2019-02-05T03:45:20.985Z,0
2019-02-05T03:46:19.701Z,0
2019-02-05T03:47:18.284Z,0
2019-02-05T03:48:16.817Z,0
2019-02-05T03:49:15.461Z,0
2019-02-05T03:50:14.010Z,0
2019-02-05T03:51:12.573Z,0
2019-02-05T03:52:11.257Z,0
2019-02-05T03:53:09.800Z,0
2019-02-05T03:54:08.338Z,0
2019-02-05T03:55:07.131Z,0
2019-02-05T03:56:05.681Z,0
2019-02-05T03:57:04.226Z,0
2019-02-05T03:58:02.956Z,0
2019-02-05T03:59:01.512Z,0
2019-02-05T04:00:00.058Z,0
2019-02-05T04:00:58.608Z,0
2019-02-05T04:01:57.159Z,0
2019-02-05T04:02:55.703Z,0
2019-02-05T04:03:54.266Z,0
2019-02-05T04:04:52.898Z,0
2019-02-05T04:05:51.427Z,0
2019-02-05T04:06:49.978Z,0
2019-02-05T04:07:48.602Z,0
2019-02-05T04:08:47.285Z,0
2019-02-05T04:09:45.865Z,0
2019-02-05T04:10:44.367Z,0
2019-02-05T04:11:43.163Z,0
2019-02-05T04:12:41.699Z,0
2019-02-05T04:13:40.238Z,0
2019-02-05T04:14:38.793Z,0
2019-02-05T04:15:37.475Z,0
2019-02-05T04:16:36.012Z,0
2019-02-05T04:17:34.700Z,0
2019-02-05T04:18:33.398Z,0
2019-02-05T04:19:31.953Z,0
2019-02-05T04:20:30.557Z,0
2019-02-05T04:21:29.422Z,0
2019-02-05T04:22:27.954Z,0
2019-02-05T04:23:26.508Z,0
2019-02-05T04:24:25.155Z,0
2019-02-05T04:27:05.299Z,0
2019-02-05T04:28:03.855Z,0
2019-02-05T04:29:02.565Z,0
2019-02-05T04:30:01.357Z,0
2019-02-05T04:30:59.903Z,0
2019-02-05T04:31:58.439Z,0
2019-02-05T04:32:57.056Z,0
2019-02-05T04:33:55.589Z,0
2019-02-05T04:34:54.146Z,0
2019-02-05T04:35:52.847Z,0
2019-02-05T04:36:51.410Z,0
2019-02-05T04:37:49.973Z,0
2019-02-05T04:38:48.503Z,0
2019-02-05T04:39:47.163Z,0
2019-02-05T04:40:45.733Z,0
2019-02-05T04:41:44.273Z,0
2019-02-05T04:42:42.886Z,0
2019-02-05T04:43:41.719Z,0
2019-02-05T04:44:40.489Z,0
2019-02-05T04:45:39.400Z,0
2019-02-05T04:46:37.953Z,0
2019-02-05T04:47:36.531Z,0
2019-02-05T04:48:35.228Z,0
2019-02-05T04:49:33.761Z,0
2019-02-05T04:50:32.403Z,0
2019-02-05T04:51:30.930Z,0
2019-02-05T04:52:29.505Z,0
2019-02-05T04:53:28.236Z,0
2019-02-05T04:54:26.968Z,0
2019-02-05T04:55:25.670Z,0
2019-02-05T04:56:24.234Z,0
2019-02-05T04:57:22.826Z,0
2019-02-05T04:58:21.425Z,0
2019-02-05T04:59:19.969Z,0
2019-02-05T05:00:18.539Z,0
2019-02-05T05:01:17.069Z,0
2019-02-05T05:02:15.616Z,0
2019-02-05T05:03:14.266Z,0
2019-02-05T05:04:13.042Z,0
2019-02-05T05:05:11.629Z,0
2019-02-05T05:06:10.222Z,0
2019-02-05T05:07:08.970Z,0
2019-02-05T05:08:08.454Z,0
2019-02-05T05:09:06.076Z,0
2019-02-05T05:10:04.623Z,0
2019-02-05T05:11:03.195Z,0
2019-02-05T05:12:01.714Z,0
2019-02-05T05:13:00.286Z,0
2019-02-05T05:13:58.803Z,0
2019-02-05T05:14:57.335Z,0
2019-02-05T05:15:55.891Z,0
2019-02-05T05:16:54.585Z,0
2019-02-05T05:17:53.355Z,0
2019-02-05T05:18:51.894Z,0
2019-02-05T05:19:50.421Z,0
2019-02-05T05:20:49.245Z,0
2019-02-05T05:21:47.812Z,0
2019-02-05T05:22:46.429Z,0
2019-02-05T05:23:45.227Z,0
2019-02-05T05:24:43.618Z,0
2019-02-05T05:25:42.168Z,0
2019-02-05T05:26:40.881Z,0
2019-02-05T05:27:39.506Z,0
2019-02-05T05:28:38.064Z,0
2019-02-05T05:29:36.661Z,0
2019-02-05T05:30:35.310Z,0
2019-02-05T05:31:33.888Z,0
2019-02-05T05:32:32.431Z,0
2019-02-05T05:33:31.029Z,0
2019-02-05T05:34:29.569Z,0
2019-02-05T05:35:40.051Z,0
2019-02-05T05:36:26.670Z,0
2019-02-05T05:37:25.220Z,0
2019-02-05T05:38:23.777Z,0
2019-02-05T05:39:22.426Z,0
2019-02-05T05:40:21.088Z,0
2019-02-05T05:41:19.642Z,0
2019-02-05T05:42:18.344Z,0
2019-02-05T05:43:17.109Z,0
2019-02-05T05:44:15.656Z,0
2019-02-05T05:45:14.188Z,0
2019-02-05T05:46:12.987Z,0
2019-02-05T05:47:11.551Z,0
2019-02-05T05:48:10.106Z,0
2019-02-05T05:49:08.756Z,0
2019-02-05T05:50:07.332Z,0
2019-02-05T05:51:05.873Z,0
2019-02-05T05:52:04.434Z,0
2019-02-05T05:53:03.306Z,0
2019-02-05T05:54:01.834Z,0
2019-02-05T05:55:00.423Z,0
2019-02-05T05:55:58.917Z,0
2019-02-05T05:56:57.465Z,0
2019-02-05T05:57:56.051Z,0
2019-02-05T05:58:54.728Z,0
2019-02-05T05:59:53.407Z,0
2019-02-05T06:00:51.955Z,0
2019-02-05T06:01:50.512Z,0
2019-02-05T06:02:49.225Z,0
2019-02-05T06:03:47.775Z,0
2019-02-05T06:04:46.328Z,0
2019-02-05T06:05:45.284Z,0
2019-02-05T06:06:43.834Z,0
2019-02-05T06:07:42.405Z,0
2019-02-05T06:08:41.245Z,0
2019-02-05T06:09:39.794Z,0
2019-02-05T06:10:38.350Z,0
2019-02-05T06:11:37.110Z,0
2019-02-05T06:12:35.672Z,0
2019-02-05T06:13:34.210Z,0
2019-02-05T06:14:32.852Z,0
2019-02-05T06:15:31.407Z,0
2019-02-05T06:16:30.012Z,0
2019-02-05T06:17:28.788Z,0
2019-02-05T06:18:27.418Z,0
2019-02-05T06:19:25.936Z,0
2019-02-05T06:20:25.432Z,0
2019-02-05T06:21:23.988Z,0
2019-02-05T06:22:22.524Z,0
2019-02-05T06:23:21.242Z,0
2019-02-05T06:24:19.793Z,0
2019-02-05T06:25:18.703Z,0
2019-02-05T06:27:59.152Z,0
2019-02-05T06:28:57.721Z,0
2019-02-05T06:57:09.082Z,5
2019-02-05T06:58:07.634Z,5
2019-02-05T06:59:06.233Z,5
2019-02-05T07:00:04.850Z,5
2019-02-05T07:01:03.574Z,5
2019-02-05T07:02:02.154Z,5
2019-02-05T07:03:01.027Z,10
2019-02-05T07:03:59.575Z,10
2019-02-05T07:04:58.118Z,10
2019-02-05T07:05:56.635Z,10
2019-02-05T07:06:55.327Z,10
2019-02-05T07:07:53.848Z,10
2019-02-05T07:08:52.423Z,10
2019-02-05T07:09:51.075Z,10
2019-02-05T07:10:49.639Z,15
2019-02-05T07:11:48.192Z,15
2019-02-05T07:12:46.870Z,15
2019-02-05T07:13:45.637Z,15
2019-02-05T07:14:44.181Z,15
2019-02-05T07:15:42.744Z,15
2019-02-05T07:16:41.327Z,15
2019-02-05T07:17:49.158Z,15
2019-02-05T07:18:38.535Z,15
2019-02-05T07:19:36.981Z,20
2019-02-05T07:20:35.636Z,20
2019-02-05T07:21:34.205Z,20
2019-02-05T07:22:32.862Z,20
2019-02-05T07:23:31.423Z,20
2019-02-05T07:26:11.482Z,20
2019-02-05T07:27:10.058Z,20
2019-02-05T07:28:08.616Z,25
2019-02-05T07:29:08.585Z,25
2019-02-05T07:30:07.217Z,25
2019-02-05T07:31:05.773Z,25
2019-02-05T07:32:04.319Z,25
2019-02-05T07:33:03.125Z,25
2019-02-05T07:34:02.078Z,25
2019-02-05T07:35:00.799Z,25
2019-02-05T07:35:59.433Z,30
2019-02-05T07:36:58.066Z,30
2019-02-05T07:37:56.767Z,30
2019-02-05T07:38:55.499Z,30
2019-02-05T07:39:53.993Z,30
2019-02-05T07:40:52.542Z,30
2019-02-05T07:41:51.074Z,30
2019-02-05T07:42:49.767Z,30
2019-02-05T07:43:48.335Z,30
2019-02-05T07:44:47.053Z,35
2019-02-05T07:45:46.565Z,35
2019-02-05T07:46:45.282Z,35
2019-02-05T07:47:43.885Z,35
2019-02-05T07:48:42.535Z,35
2019-02-05T07:49:41.068Z,35
2019-02-05T07:50:39.622Z,35
2019-02-05T07:51:38.169Z,35
2019-02-05T07:52:36.741Z,35
2019-02-05T07:53:35.281Z,35
2019-02-05T07:54:33.858Z,35
2019-02-05T07:55:32.383Z,35
2019-02-05T07:56:31.093Z,40
2019-02-05T07:57:29.639Z,40
2019-02-05T07:58:28.180Z,40
2019-02-05T07:59:26.947Z,40
2019-02-05T08:00:25.595Z,40
2019-02-05T08:01:24.137Z,40
2019-02-05T08:02:22.865Z,35
2019-02-05T08:03:21.411Z,40
2019-02-05T08:04:19.983Z,40
2019-02-05T08:05:18.562Z,40
2019-02-05T08:06:17.454Z,40
2019-02-05T08:07:16.084Z,40
2019-02-05T08:08:14.671Z,40
2019-02-05T08:09:13.358Z,40
2019-02-05T08:10:11.974Z,45
2019-02-05T08:11:10.504Z,45
2019-02-05T08:12:09.058Z,45
2019-02-05T08:13:07.632Z,45
2019-02-05T08:14:06.287Z,40
2019-02-05T08:15:04.772Z,45
2019-02-05T08:16:03.372Z,45
2019-02-05T08:17:01.936Z,45
2019-02-05T08:18:00.477Z,45
2019-02-05T08:18:59.243Z,45
2019-02-05T08:19:57.854Z,45
2019-02-05T08:20:56.398Z,45
2019-02-05T08:21:55.166Z,45
2019-02-05T08:22:53.704Z,45
2019-02-05T08:23:52.233Z,45
2019-02-05T08:24:50.810Z,45
2019-02-05T08:25:49.368Z,45
2019-02-05T08:26:47.909Z,50
2019-02-05T08:27:46.465Z,50
2019-02-05T08:28:45.156Z,50
2019-02-05T08:29:43.737Z,50
2019-02-05T08:30:42.284Z,50
2019-02-05T08:31:41.059Z,50
2019-02-05T08:32:39.715Z,50
2019-02-05T08:33:38.329Z,50
2019-02-05T08:34:37.090Z,50
2019-02-05T08:35:35.579Z,50
2019-02-05T08:36:34.105Z,50
2019-02-05T08:37:32.809Z,50
2019-02-05T08:38:31.466Z,50
2019-02-05T08:39:29.998Z,50
2019-02-05T08:40:28.595Z,50
2019-02-05T08:41:27.397Z,50
2019-02-05T08:42:25.971Z,50
2019-02-05T08:43:24.648Z,50
2019-02-05T08:44:23.344Z,50
2019-02-05T08:47:03.439Z,50
2019-02-05T08:48:01.980Z,50
2019-02-05T08:49:00.675Z,50
2019-02-05T08:49:59.532Z,50
2019-02-05T08:50:58.162Z,50
2019-02-05T08:51:56.885Z,50
2019-02-05T08:52:55.614Z,55
2019-02-05T08:53:54.281Z,55
2019-02-05T08:54:53.119Z,55
2019-02-05T08:55:51.658Z,55
2019-02-05T08:56:50.194Z,55
2019-02-05T08:57:49.008Z,55
2019-02-05T08:58:47.603Z,55
2019-02-05T08:59:46.247Z,55
2019-02-05T09:00:44.871Z,55
2019-02-05T09:01:43.557Z,55
2019-02-05T09:02:42.108Z,55
2019-02-05T09:03:40.791Z,55
2019-02-05T09:04:39.347Z,55
2019-02-05T09:05:37.894Z,55
2019-02-05T09:06:36.418Z,55
2019-02-05T09:07:35.107Z,55
2019-02-05T09:08:33.675Z,55
2019-02-05T09:09:32.215Z,55
2019-02-05T09:10:30.951Z,55
2019-02-05T09:11:29.633Z,55
2019-02-05T09:14:27.774Z,55
2019-02-05T09:15:29.238Z,55
2019-02-05T09:16:25.033Z,55
2019-02-05T09:17:24.329Z,55
2019-02-05T09:18:22.305Z,55
2019-02-05T09:19:20.856Z,60
2019-02-05T09:20:19.442Z,55
2019-02-05T09:21:18.030Z,60
2019-02-05T09:22:16.550Z,60
2019-02-05T09:23:15.111Z,60
2019-02-05T09:24:13.791Z,60
2019-02-05T09:25:12.462Z,60
2019-02-05T09:26:11.225Z,60
2019-02-05T09:27:09.796Z,60
2019-02-05T09:28:08.365Z,60
2019-02-05T09:29:06.953Z,60
2019-02-05T09:30:05.613Z,60
2019-02-05T09:31:04.245Z,60
2019-02-05T09:32:02.955Z,60
2019-02-05T09:33:01.483Z,60
2019-02-05T09:34:00.098Z,60
2019-02-05T09:34:58.804Z,60
2019-02-05T09:35:57.453Z,60
2019-02-05T09:36:56.144Z,60
2019-02-05T09:37:57.663Z,60
2019-02-05T09:38:54.647Z,60
2019-02-05T09:39:53.588Z,60
2019-02-05T09:40:52.163Z,60
2019-02-05T09:41:50.828Z,65
2019-02-05T09:42:49.462Z,65
2019-02-05T09:43:48.119Z,65
2019-02-05T09:44:46.892Z,65
2019-02-05T09:45:45.511Z,65
2019-02-05T09:46:44.054Z,65
2019-02-05T09:47:42.580Z,65
2019-02-05T09:48:41.224Z,65
2019-02-05T09:49:39.828Z,65
2019-02-05T09:50:44.495Z,65
2019-02-05T09:51:36.952Z,65
2019-02-05T09:52:35.546Z,65
2019-02-05T09:53:34.176Z,65
2019-02-05T09:54:32.762Z,65
2019-02-05T09:55:31.525Z,65
2019-02-05T09:56:30.183Z,65
2019-02-05T09:57:28.738Z,65
2019-02-05T09:58:27.545Z,65
2019-02-05T09:59:26.120Z,65
2019-02-05T10:00:24.658Z,65
2019-02-05T10:01:23.308Z,65
2019-02-05T10:02:21.835Z,65
2019-02-05T10:03:20.421Z,65
2019-02-05T10:04:19.271Z,65
2019-02-05T10:05:17.813Z,65
2019-02-05T10:06:16.446Z,70
2019-02-05T10:07:15.124Z,70
2019-02-05T10:09:55.582Z,70
2019-02-05T10:10:54.138Z,70
2019-02-05T10:11:52.837Z,70
2019-02-05T10:12:51.640Z,70
2019-02-05T10:13:50.192Z,70
2019-02-05T10:14:48.729Z,70
2019-02-05T10:15:47.340Z,70
2019-02-05T10:16:45.944Z,70
2019-02-05T10:17:44.608Z,70
2019-02-05T10:18:45.830Z,70
2019-02-05T10:19:41.996Z,70
2019-02-05T10:20:40.707Z,70
2019-02-05T10:21:39.382Z,70
2019-02-05T10:22:38.034Z,70
2019-02-05T10:23:36.649Z,70
2019-02-05T10:24:35.590Z,70
2019-02-05T10:25:34.224Z,70
2019-02-05T10:26:32.818Z,70
2019-02-05T10:27:31.371Z,70
2019-02-05T10:28:29.940Z,70
2019-02-05T10:29:28.612Z,70
2019-02-05T10:30:27.107Z,70
2019-02-05T10:31:25.657Z,70
2019-02-05T10:32:24.257Z,70
2019-02-05T10:33:22.915Z,70
2019-02-05T10:34:21.672Z,70
2019-02-05T10:35:20.242Z,70
2019-02-05T10:36:19.005Z,70
2019-02-05T10:37:17.625Z,70
2019-02-05T10:39:57.853Z,70
2019-02-05T10:40:56.370Z,70
2019-02-05T10:41:54.906Z,70
2019-02-05T10:42:53.476Z,70
2019-02-05T10:43:52.033Z,70
2019-02-05T10:44:50.739Z,70
2019-02-05T10:45:49.635Z,70
2019-02-05T10:46:48.223Z,70
2019-02-05T10:47:46.795Z,70
2019-02-05T10:48:45.359Z,70
2019-02-05T11:07:48.274Z,65
2019-02-05T11:08:47.034Z,65
2019-02-05T11:09:45.623Z,65
2019-02-05T11:10:44.178Z,65
2019-02-05T11:11:42.766Z,65
2019-02-05T11:12:41.529Z,65
2019-02-05T11:13:40.159Z,65
2019-02-05T11:14:38.666Z,65
2019-02-05T11:15:37.391Z,65
2019-02-05T11:16:35.946Z,65
2019-02-05T11:17:34.644Z,65
2019-02-05T11:18:33.507Z,65
2019-02-05T11:19:32.100Z,65
2019-02-05T11:20:30.924Z,65
2019-02-05T11:21:29.475Z,65
2019-02-05T11:22:28.061Z,65
2019-02-05T11:23:26.795Z,65
2019-02-05T11:24:25.543Z,65
2019-02-05T11:25:24.134Z,65
2019-02-05T11:26:22.717Z,65
2019-02-05T11:27:21.473Z,65
2019-02-05T11:28:20.232Z,65
2019-02-05T11:29:18.821Z,65
2019-02-05T11:30:20.157Z,65
2019-02-05T11:31:16.203Z,65
2019-02-05T11:32:14.793Z,70
2019-02-05T11:33:13.513Z,70
2019-02-05T11:34:12.088Z,70
2019-02-05T11:35:10.787Z,70
2019-02-05T11:36:09.407Z,70
2019-02-05T11:37:07.941Z,70
2019-02-05T11:38:06.558Z,70
2019-02-05T11:39:05.114Z,70
2019-02-05T11:40:03.857Z,70
2019-02-05T11:41:02.449Z,75
2019-02-05T11:42:01.104Z,75
2019-02-05T11:42:59.686Z,75
2019-02-05T11:43:58.586Z,75
2019-02-05T11:44:57.185Z,75
2019-02-05T11:45:56.094Z,75
2019-02-05T11:46:54.641Z,75
2019-02-05T11:47:53.219Z,70
2019-02-05T11:48:51.911Z,70
2019-02-05T11:49:50.510Z,70
2019-02-05T11:50:49.269Z,65
2019-02-05T11:51:48.100Z,65
2019-02-05T11:52:46.779Z,65
2019-02-05T11:53:45.390Z,65
2019-02-05T11:54:43.924Z,65
2019-02-05T11:55:42.443Z,65
2019-02-05T11:56:41.049Z,65
2019-02-05T11:57:39.610Z,65
2019-02-05T11:58:38.152Z,65
2019-02-05T11:59:36.823Z,65
2019-02-05T12:00:35.525Z,65
2019-02-05T12:01:38.661Z,65
2019-02-05T12:02:32.698Z,65
2019-02-05T12:03:31.392Z,65
2019-02-05T12:04:30.041Z,65
2019-02-05T12:05:28.573Z,65
2019-02-05T12:06:27.106Z,65
2019-02-05T12:07:25.673Z,65
2019-02-05T12:08:24.182Z,65
2019-02-05T12:09:22.845Z,65
2019-02-05T12:10:21.436Z,65
2019-02-05T12:11:20.028Z,65
2019-02-05T12:12:18.618Z,65
2019-02-05T12:13:17.386Z,65
2019-02-05T12:14:15.964Z,65
2019-02-05T12:15:14.530Z,65
2019-02-05T12:16:13.242Z,65
2019-02-05T12:17:11.787Z,65
2019-02-05T12:18:10.363Z,65
2019-02-05T12:19:08.925Z,65
2019-02-05T12:20:07.555Z,65
2019-02-05T12:21:06.289Z,65
2019-02-05T12:22:05.057Z,65
2019-02-05T12:23:03.692Z,65
2019-02-05T12:24:02.237Z,60
2019-02-05T12:25:05.933Z,60
2019-02-05T12:26:04.622Z,60
2019-02-05T12:27:03.375Z,60
2019-02-05T12:28:01.938Z,60
2019-02-05T12:29:00.616Z,60
2019-02-05T12:29:59.276Z,60
2019-02-05T12:30:57.894Z,60
2019-02-05T12:31:56.669Z,60
2019-02-05T12:32:55.462Z,60
2019-02-05T12:33:54.072Z,60
2019-02-05T12:34:52.658Z,60
2019-02-05T12:35:51.434Z,60
2019-02-05T12:36:49.996Z,60
2019-02-05T12:37:48.612Z,60
2019-02-05T12:38:47.320Z,60
2019-02-05T12:39:45.908Z,60
2019-02-05T12:40:44.485Z,60
2019-02-05T12:41:43.184Z,60
2019-02-05T12:42:41.896Z,60
2019-02-05T12:43:40.470Z,60
2019-02-05T12:44:39.022Z,60
2019-02-05T12:45:37.618Z,60
2019-02-05T12:46:36.139Z,60
2019-02-05T12:47:34.722Z,60
2019-02-05T12:48:34.065Z,60
2019-02-05T12:49:32.694Z,60
2019-02-05T12:50:31.265Z,60
2019-02-05T12:51:29.803Z,60
2019-02-05T12:52:28.325Z,60
2019-02-05T12:53:27.024Z,60
2019-02-05T12:54:25.767Z,60
2019-02-05T12:55:24.299Z,60
2019-02-05T12:56:22.921Z,65
2019-02-05T12:57:21.512Z,60
2019-02-05T12:58:20.044Z,65
2019-02-05T12:59:18.596Z,65
2019-02-05T13:00:17.311Z,65
2019-02-05T13:01:15.923Z,65
2019-02-05T13:02:14.392Z,65
2019-02-05T13:03:12.961Z,60
2019-02-05T13:04:11.508Z,65
2019-02-05T13:05:10.173Z,60
2019-02-05T13:06:08.771Z,60
2019-02-05T13:07:07.579Z,60
2019-02-05T13:08:06.197Z,60
2019-02-05T13:09:04.860Z,60
2019-02-05T13:10:03.472Z,60
2019-02-05T13:11:02.007Z,60
2019-02-05T13:12:00.544Z,60
2019-02-05T13:12:59.089Z,60
2019-02-05T13:13:57.638Z,65
2019-02-05T13:14:56.226Z,65
2019-02-05T13:15:54.809Z,65
2019-02-05T13:16:53.416Z,65
2019-02-05T13:17:52.015Z,65
2019-02-05T13:18:51.954Z,65
2019-02-05T13:19:49.224Z,65
2019-02-05T13:20:47.881Z,65
2019-02-05T13:21:46.503Z,65
2019-02-05T13:22:45.138Z,65
2019-02-05T13:23:43.710Z,65
2019-02-05T13:24:42.218Z,65
2019-02-05T13:25:40.783Z,65
2019-02-05T13:26:39.352Z,65
2019-02-05T13:27:37.953Z,65
2019-02-05T13:28:36.620Z,65
2019-02-05T13:29:35.256Z,65
2019-02-05T13:30:33.915Z,65
2019-02-05T13:31:32.479Z,65
2019-02-05T13:32:31.326Z,65
2019-02-05T13:33:29.856Z,65
2019-02-05T13:34:28.732Z,65
2019-02-05T13:35:27.500Z,65
2019-02-05T13:36:26.057Z,65
2019-02-05T13:37:24.604Z,65
2019-02-05T13:38:23.193Z,65
2019-02-05T13:39:21.770Z,65
2019-02-05T13:40:20.411Z,65
2019-02-05T13:41:18.945Z,65
2019-02-05T13:42:17.547Z,65
2019-02-05T13:43:16.217Z,65
2019-02-05T13:44:14.870Z,65
2019-02-05T13:45:13.579Z,65
2019-02-05T13:46:12.261Z,65
2019-02-05T13:47:10.780Z,65
2019-02-05T13:48:09.554Z,65
2019-02-05T13:49:08.095Z,65
2019-02-05T13:50:06.657Z,65
2019-02-05T13:51:05.484Z,65
2019-02-05T13:52:04.056Z,65
2019-02-05T13:53:02.595Z,65
2019-02-05T13:54:01.244Z,65
2019-02-05T13:54:59.842Z,65
2019-02-05T13:55:58.422Z,65
2019-02-05T13:56:57.047Z,65
2019-02-05T13:57:55.742Z,65
2019-02-05T13:58:54.356Z,65
2019-02-05T13:59:52.913Z,65
2019-02-05T14:00:51.468Z,65
2019-02-05T14:01:50.020Z,65
2019-02-05T14:02:48.697Z,65
2019-02-05T14:03:47.504Z,65
2019-02-05T14:04:46.052Z,65
2019-02-05T14:05:44.666Z,65
2019-02-05T14:06:43.997Z,65
2019-02-05T14:07:44.608Z,65
2019-02-05T14:08:43.389Z,65
2019-02-05T14:09:41.967Z,65
2019-02-05T14:10:40.503Z,65
2019-02-05T14:11:39.067Z,65
2019-02-05T14:12:37.616Z,65
2019-02-05T14:13:36.168Z,65
2019-02-05T14:14:34.767Z,60
2019-02-05T14:15:33.528Z,60
2019-02-05T14:16:32.096Z,60
2019-02-05T14:17:30.643Z,60
2019-02-05T14:18:29.247Z,60
2019-02-05T14:19:27.981Z,60
2019-02-05T14:20:26.552Z,60
2019-02-05T14:21:25.121Z,55
2019-02-05T14:22:23.692Z,60
2019-02-05T14:23:22.291Z,60
2019-02-05T14:24:20.916Z,55
2019-02-05T14:25:19.611Z,55
2019-02-05T14:26:18.159Z,55
2019-02-05T14:27:16.791Z,55
2019-02-05T14:28:15.520Z,55
2019-02-05T14:29:14.080Z,55
2019-02-05T14:30:12.632Z,55
2019-02-05T14:31:11.208Z,55
2019-02-05T14:32:09.747Z,55
2019-02-05T14:33:08.326Z,55
2019-02-05T14:34:06.875Z,50
2019-02-05T14:35:05.491Z,50
2019-02-05T14:36:04.135Z,50
2019-02-05T14:37:02.690Z,50
2019-02-05T14:38:01.448Z,50
2019-02-05T14:39:00.085Z,50
2019-02-05T14:39:58.605Z,50
2019-02-05T14:40:57.343Z,50
2019-02-05T14:41:55.946Z,50
2019-02-05T14:42:54.496Z,45
2019-02-05T14:43:53.051Z,45
2019-02-05T14:44:51.594Z,45
2019-02-05T14:45:50.126Z,45
2019-02-05T14:46:48.750Z,45
2019-02-05T14:47:47.348Z,45
2019-02-05T14:48:45.912Z,45
2019-02-05T14:49:44.468Z,45
2019-02-05T14:50:43.267Z,45
2019-02-05T14:51:41.879Z,40
2019-02-05T14:52:40.436Z,40
2019-02-05T14:53:39.034Z,40
2019-02-05T14:54:37.706Z,40
2019-02-05T14:55:36.387Z,40
2019-02-05T14:56:35.223Z,40
2019-02-05T14:57:33.896Z,40
2019-02-05T14:58:32.434Z,40
2019-02-05T14:59:31.081Z,40
2019-02-05T15:00:29.752Z,40
2019-02-05T15:01:28.289Z,40
2019-02-05T15:02:31.091Z,40
2019-02-05T15:03:29.659Z,40
2019-02-05T15:04:28.314Z,40
2019-02-05T15:05:26.907Z,40
2019-02-05T15:06:25.683Z,40
2019-02-05T15:07:24.218Z,40